Time;durP1;ratioP1;P1;durP2;ratioP2;P2;SDS_P1;SDS_P2;PMS_P1;PMS_P2;Temp;Humidity;BMP_temperature;BMP_pressure;BME280_temperature;BME280_humidity;BME280_pressure;Samples;Min_cycle;Max_cycle;Signal;HPM_P1;HPM_P2
2022/12/02 00:00:42;;;;;;;21.98;13.25;;;;;;;-0.02;100.00;93153.78;2132089;27;20026;-75
2022/12/02 00:01:43;;;;;;;30.30;13.02;;;;;;;-0.07;100.00;93146.22;2131797;27;20042;-74
2022/12/02 00:02:44;;;;;;;28.63;13.55;;;;;;;0.01;100.00;93147.09;2131664;27;20027;-75
2022/12/02 00:03:46;;;;;;;31.35;13.75;;;;;;;0.06;100.00;93143.44;2122520;27;20409;-74
2022/12/02 00:04:56;;;;;;;21.50;12.70;;;;;;;-0.01;100.00;93144.81;2123120;27;20031;-75
2022/12/02 00:05:57;;;;;;;;;;;;;;;0.11;100.00;93148.41;2132585;27;20072;-75
2022/12/02 00:06:59;;;;;;;21.60;12.80;;;;;;;0.12;100.00;93139.41;2134303;27;20013;-74
2022/12/02 00:08:12;;;;;;;46.42;14.40;;;;;;;0.09;100.00;93145.34;2140161;27;20069;-75
2022/12/02 00:09:34;;;;;;;22.13;12.85;;;;;;;0.12;100.00;93148.03;2140177;27;20111;-74
2022/12/02 00:10:36;;;;;;;24.70;11.73;;;;;;;0.16;100.00;93145.47;2136203;27;20019;-75
2022/12/02 00:11:39;;;;;;;26.05;12.60;;;;;;;0.16;100.00;93142.84;2132009;27;20308;-75
2022/12/02 00:12:40;;;;;;;26.90;12.85;;;;;;;0.15;100.00;93146.59;2138512;27;20029;-75
2022/12/02 00:13:43;;;;;;;29.90;12.48;;;;;;;0.13;100.00;93143.53;2139891;27;20023;-74
2022/12/02 00:14:44;;;;;;;30.88;12.85;;;;;;;0.18;100.00;93136.16;2140420;27;20022;-75
2022/12/02 00:15:46;;;;;;;31.15;13.63;;;;;;;0.15;100.00;93144.72;2140638;27;20098;-74
2022/12/02 00:16:48;;;;;;;24.15;13.27;;;;;;;0.10;100.00;93141.63;2140353;27;20025;-74
2022/12/02 00:17:49;;;;;;;23.75;12.75;;;;;;;0.10;100.00;93137.13;2139610;27;20079;-74
2022/12/02 00:18:51;;;;;;;24.45;13.45;;;;;;;0.10;100.00;93141.63;2140399;27;20053;-75
2022/12/02 00:19:52;;;;;;;23.00;12.88;;;;;;;0.07;100.00;93139.69;2140128;27;20050;-75
2022/12/02 00:20:54;;;;;;;25.80;12.82;;;;;;;0.11;100.00;93138.63;2139484;27;20388;-76
2022/12/02 00:21:55;;;;;;;26.95;11.88;;;;;;;0.21;100.00;93135.44;2140452;27;20113;-75
2022/12/02 00:22:56;;;;;;;25.35;12.38;;;;;;;0.25;100.00;93136.25;2134204;27;20030;-75
2022/12/02 00:24:18;;;;;;;26.42;13.07;;;;;;;0.26;100.00;93134.38;2131587;27;20369;-75
2022/12/02 00:25:42;;;;;;;22.08;12.35;;;;;;;0.21;100.00;93129.41;2131704;27;20480;-75
2022/12/02 00:27:02;;;;;;;28.92;12.52;;;;;;;0.10;100.00;93131.13;2131340;27;20114;-75
2022/12/02 00:28:23;;;;;;;21.25;12.35;;;;;;;0.08;100.00;93135.94;2130652;27;20777;-74
2022/12/02 00:29:43;;;;;;;22.90;12.65;;;;;;;0.10;100.00;93126.63;2122151;27;20524;-75
2022/12/02 00:31:04;;;;;;;48.95;12.82;;;;;;;0.08;100.00;93128.81;2128723;27;20102;-74
2022/12/02 00:32:24;;;;;;;32.30;12.23;;;;;;;0.08;100.00;93126.19;2139946;27;20102;-74
2022/12/02 00:33:29;;;;;;;29.23;13.20;;;;;;;0.03;100.00;93128.34;2123382;27;20018;-75
2022/12/02 00:34:50;;;;;;;36.13;12.57;;;;;;;-0.01;100.00;93131.66;2131055;27;20130;-75
2022/12/02 00:36:10;;;;;;;29.15;12.00;;;;;;;0.01;100.00;93128.72;2140401;27;20169;-76
2022/12/02 00:37:31;;;;;;;36.40;12.38;;;;;;;0.09;100.00;93129.56;2140405;27;20435;-75
2022/12/02 00:38:51;;;;;;;25.50;12.65;;;;;;;0.08;100.00;93123.56;2130296;27;20868;-75
2022/12/02 00:40:12;;;;;;;35.25;14.15;;;;;;;0.05;100.00;93120.91;2121340;27;20033;-75
2022/12/02 00:41:32;;;;;;;27.65;12.95;;;;;;;0.09;100.00;93126.94;2128537;27;20441;-75
2022/12/02 00:42:52;;;;;;;34.92;12.68;;;;;;;0.07;100.00;93127.31;2130797;27;20034;-76
2022/12/02 00:47:31;;;;;;;27.27;11.73;;;;;;;0.00;100.00;93124.56;2131583;27;20453;-75
2022/12/02 00:48:52;;;;;;;59.30;13.70;;;;;;;-0.01;100.00;93112.53;2135665;27;20471;-75
2022/12/02 00:50:12;;;;;;;32.80;13.23;;;;;;;0.07;100.00;93116.03;2139411;27;20476;-75
2022/12/02 00:51:35;;;;;;;30.77;12.45;;;;;;;0.09;100.00;93111.19;2136265;27;20101;-74
2022/12/02 00:52:40;;;;;;;29.95;12.73;;;;;;;0.04;100.00;93112.22;2133399;27;20029;-74
2022/12/02 00:53:41;;;;;;;34.90;13.65;;;;;;;0.10;100.00;93117.97;2135532;27;20026;-75
2022/12/02 00:54:42;;;;;;;30.50;13.88;;;;;;;0.06;100.00;93119.78;2131608;27;20027;-75
2022/12/02 00:55:43;;;;;;;30.33;13.13;;;;;;;0.08;100.00;93113.06;2131223;27;20441;-74
2022/12/02 00:56:44;;;;;;;27.73;12.73;;;;;;;0.12;100.00;93115.75;2122111;27;20023;-75
2022/12/02 00:57:45;;;;;;;60.17;12.40;;;;;;;0.03;100.00;93118.59;2113908;28;20024;-75
2022/12/02 00:58:46;;;;;;;52.72;14.23;;;;;;;-0.02;100.00;93121.50;2122152;27;20035;-76
2022/12/02 00:59:47;;;;;;;75.57;13.45;;;;;;;-0.02;100.00;93111.75;2131303;27;20018;-75
2022/12/02 01:00:48;;;;;;;74.38;14.48;;;;;;;-0.10;100.00;93112.75;2137600;27;20026;-75
2022/12/02 01:01:49;;;;;;;35.42;12.73;;;;;;;-0.07;100.00;93108.66;2129619;27;20444;-75
2022/12/02 01:02:50;;;;;;;97.40;15.05;;;;;;;-0.09;100.00;93116.91;2130944;27;20203;-74
2022/12/02 01:03:52;;;;;;;58.65;13.90;;;;;;;-0.06;100.00;93116.19;2133553;27;20029;-73
2022/12/02 01:04:53;;;;;;;127.53;14.30;;;;;;;-0.12;100.00;93114.22;2140239;27;20359;-75
2022/12/02 01:05:54;;;;;;;47.10;13.20;;;;;;;-0.09;100.00;93113.50;2140054;27;20018;-76
2022/12/02 01:06:55;;;;;;;59.30;13.68;;;;;;;-0.09;100.00;93110.88;2140269;27;20025;-75
2022/12/02 01:07:56;;;;;;;102.90;13.75;;;;;;;-0.12;100.00;93116.84;2139929;27;20034;-76
2022/12/02 01:08:57;;;;;;;70.78;13.25;;;;;;;-0.08;100.00;93115.03;2140293;27;20030;-75
2022/12/02 01:09:58;;;;;;;50.45;12.93;;;;;;;-0.05;100.00;93107.19;2124780;27;20031;-74
2022/12/02 01:11:20;;;;;;;94.05;13.00;;;;;;;-0.12;100.00;93111.59;2131112;27;20037;-74
2022/12/02 01:12:41;;;;;;;42.45;12.93;;;;;;;-0.08;100.00;93117.66;2133615;27;20039;-74
2022/12/02 01:14:02;;;;;;;169.45;14.68;;;;;;;-0.12;100.00;93109.72;2131764;27;20018;-77
2022/12/02 01:15:22;;;;;;;58.92;13.00;;;;;;;-0.08;100.00;93115.78;2131839;27;20064;-75
2022/12/02 01:16:43;;;;;;;45.65;12.75;;;;;;;-0.05;100.00;93107.19;2122222;27;20342;-77
2022/12/02 01:18:03;;;;;;;73.45;13.27;;;;;;;-0.07;100.00;93114.69;2127419;27;20070;-76
2022/12/02 01:19:24;;;;;;;62.05;12.05;;;;;;;-0.12;100.00;93109.72;2130886;27;20046;-76
2022/12/02 01:20:44;;;;;;;89.03;13.43;;;;;;;-0.06;100.00;93100.44;2131033;27;20022;-74
2022/12/02 01:22:05;;;;;;;77.72;12.73;;;;;;;0.12;100.00;93102.59;2131426;27;20456;-75
2022/12/02 01:23:25;;;;;;;41.38;12.45;;;;;;;0.07;100.00;93111.53;2131434;27;20023;-75
2022/12/02 01:24:45;;;;;;;43.63;11.43;;;;;;;-0.03;100.00;93102.38;2122118;27;20111;-76
2022/12/02 01:26:06;;;;;;;28.88;10.68;;;;;;;0.04;100.00;93100.97;2127135;27;20054;-76
2022/12/02 01:27:26;;;;;;;83.65;12.10;;;;;;;0.08;100.00;93094.66;2127661;27;20477;-74
2022/12/02 01:28:47;;;;;;;42.97;12.55;;;;;;;0.09;100.00;93096.19;2136818;27;20105;-74
2022/12/02 01:30:08;;;;;;;34.40;12.10;;;;;;;0.06;100.00;93106.63;2136849;27;20059;-74
2022/12/02 01:31:28;;;;;;;51.83;12.23;;;;;;;0.05;100.00;93100.63;2133400;27;20090;-76
2022/12/02 01:32:49;;;;;;;39.28;12.15;;;;;;;0.03;100.00;93107.34;2139474;27;20066;-74
2022/12/02 01:34:09;;;;;;;34.80;12.05;;;;;;;-0.01;100.00;93107.25;2121911;27;20062;-74
2022/12/02 01:35:30;;;;;;;48.42;14.00;;;;;;;-0.01;100.00;93107.25;2127717;27;20026;-74
2022/12/02 01:36:50;;;;;;;39.33;11.60;;;;;;;0.03;100.00;93108.09;2131163;27;20076;-74
2022/12/02 01:38:10;;;;;;;19.98;11.13;;;;;;;0.06;100.00;93106.63;2130748;27;20030;-75
2022/12/02 01:39:31;;;;;;;22.88;11.10;;;;;;;0.10;100.00;93102.22;2130479;27;20367;-75
2022/12/02 01:40:52;;;;;;;32.22;12.32;;;;;;;0.05;100.00;93102.50;2133735;27;20035;-75
2022/12/02 01:42:13;;;;;;;27.90;11.93;;;;;;;-0.03;100.00;93104.25;2131668;27;20472;-74
2022/12/02 01:43:33;;;;;;;31.45;11.48;;;;;;;-0.08;100.00;93110.53;2137385;27;20631;-76
2022/12/02 01:44:35;;;;;;;39.38;12.27;;;;;;;-0.02;100.00;93100.50;2140024;27;20459;-76
2022/12/02 01:45:36;;;;;;;44.20;12.60;;;;;;;-0.07;100.00;93095.53;2129039;27;20018;-74
2022/12/02 01:46:37;;;;;;;27.90;12.05;;;;;;;-0.05;100.00;93111.69;2122326;27;20119;-74
2022/12/02 01:48:02;;;;;;;31.55;12.65;;;;;;;-0.04;100.00;93106.09;2131999;27;20031;-74
2022/12/02 01:49:05;;;;;;;24.05;12.82;;;;;;;-0.05;100.00;93099.31;2134266;27;20028;-75
2022/12/02 01:50:09;;;;;;;43.75;12.98;;;;;;;-0.05;100.00;93095.94;2132617;27;20026;-74
2022/12/02 01:51:10;;;;;;;29.02;11.45;;;;;;;-0.03;100.00;93101.59;2135485;27;20037;-74
2022/12/02 01:52:11;;;;;;;35.97;12.10;;;;;;;-0.05;100.00;93099.31;2139826;27;20681;-74
2022/12/02 01:53:13;;;;;;;30.40;12.65;;;;;;;-0.08;100.00;93100.03;2139969;27;20018;-75
2022/12/02 01:54:14;;;;;;;40.92;13.32;;;;;;;-0.08;100.00;93101.91;2139798;27;20030;-75
2022/12/02 01:55:20;;;;;;;37.60;13.63;;;;;;;-0.11;100.00;93103.34;2139362;27;20022;-75
2022/12/02 01:56:22;;;;;;;35.40;12.68;;;;;;;-0.07;100.00;93100.78;2138690;27;20394;-74
2022/12/02 01:57:28;;;;;;;37.80;12.45;;;;;;;-0.01;100.00;93100.13;2139615;27;20022;-74
2022/12/02 01:58:30;;;;;;;49.90;12.93;;;;;;;-0.03;100.00;93094.47;2130443;27;20022;-76
2022/12/02 01:59:33;;;;;;;27.92;12.45;;;;;;;0.01;100.00;93101.69;2130453;27;20365;-75
2022/12/02 02:00:42;;;;;;;34.47;12.73;;;;;;;-0.02;100.00;93092.63;2139418;27;20029;-75
2022/12/02 02:01:43;;;;;;;29.08;13.02;;;;;;;-0.01;100.00;93102.00;2133149;27;20465;-76
2022/12/02 02:02:45;;;;;;;24.60;11.85;;;;;;;-0.04;100.00;93100.09;2130393;27;20037;-74
2022/12/02 02:03:46;;;;;;;34.25;11.80;;;;;;;-0.07;100.00;93098.91;2130742;27;20022;-75
2022/12/02 02:04:47;;;;;;;37.03;12.43;;;;;;;-0.10;100.00;93104.84;2130961;27;20356;-75
2022/12/02 02:05:50;;;;;;;21.90;11.98;;;;;;;-0.02;100.00;93101.25;2130430;27;20034;-75
2022/12/02 02:06:51;;;;;;;27.25;11.90;;;;;;;-0.02;100.00;93096.00;2130883;27;20026;-76
2022/12/02 02:07:58;;;;;;;23.13;11.63;;;;;;;-0.03;100.00;93099.75;2132762;27;20652;-74
2022/12/02 02:08:59;;;;;;;24.58;11.68;;;;;;;0.02;100.00;93097.94;2138875;27;20397;-74
2022/12/02 02:10:00;;;;;;;34.22;11.80;;;;;;;0.01;100.00;93093.78;2131280;27;20033;-74
2022/12/02 02:11:01;;;;;;;27.17;12.48;;;;;;;-0.02;100.00;93103.13;2130788;27;20022;-74
2022/12/02 02:12:02;;;;;;;26.70;10.68;;;;;;;0.05;100.00;93092.75;2121377;27;20439;-74
2022/12/02 02:13:06;;;;;;;30.98;12.75;;;;;;;0.04;100.00;93096.47;2121501;27;20366;-75
2022/12/02 02:14:11;;;;;;;41.17;13.00;;;;;;;0.02;100.00;93098.69;2121269;27;20058;-74
2022/12/02 02:16:59;;;;;;;;;;;;;;;0.01;100.00;93091.94;2146790;27;21084;-75
2022/12/02 02:18:00;;;;;;;32.10;11.07;;;;;;;-0.02;100.00;93087.34;2137573;27;19911;-75
2022/12/02 02:19:03;;;;;;;24.35;11.68;;;;;;;0.00;100.00;93095.66;2137470;27;20037;-76
2022/12/02 02:20:07;;;;;;;44.10;13.40;;;;;;;-0.12;100.00;93093.94;2138068;27;20046;-76
2022/12/02 02:21:15;;;;;;;41.63;13.05;;;;;;;-0.10;100.00;93086.47;2138283;27;20022;-76
2022/12/02 02:22:23;;;;;;;23.95;12.80;;;;;;;-0.05;100.00;93088.81;2137881;27;20026;-76
2022/12/02 02:23:26;;;;;;;29.45;12.05;;;;;;;-0.03;100.00;93093.72;2137916;27;20063;-76
2022/12/02 02:24:27;;;;;;;32.78;13.05;;;;;;;-0.04;100.00;93089.59;2138262;27;20061;-76
2022/12/02 02:25:28;;;;;;;34.08;12.00;;;;;;;0.05;100.00;93092.75;2137758;27;20445;-76
2022/12/02 02:26:29;;;;;;;42.10;13.00;;;;;;;0.04;100.00;93082.56;2129092;27;20019;-76
2022/12/02 02:27:29;;;;;;;31.77;12.68;;;;;;;0.18;100.00;93077.56;2129888;27;20035;-76
2022/12/02 02:28:32;;;;;;;22.38;11.82;;;;;;;0.15;100.00;93078.25;2128730;27;20026;-76
2022/12/02 02:29:33;;;;;;;32.67;13.65;;;;;;;0.10;100.00;93076.69;2119125;27;20050;-76
2022/12/02 02:30:35;;;;;;;28.15;12.50;;;;;;;0.09;100.00;93082.28;2129406;27;20027;-76
2022/12/02 02:31:36;;;;;;;63.70;12.95;;;;;;;0.09;100.00;93075.19;2128876;27;20051;-76
2022/12/02 02:32:37;;;;;;;31.00;12.65;;;;;;;0.09;100.00;93084.91;2131864;27;20015;-76
2022/12/02 02:33:39;;;;;;;45.35;12.90;;;;;;;0.06;100.00;93075.09;2146796;27;20026;-75
2022/12/02 02:34:50;;;;;;;59.67;11.80;;;;;;;0.09;100.00;93077.03;2142321;27;20098;-76
2022/12/02 02:35:51;;;;;;;33.10;12.32;;;;;;;0.05;100.00;93070.97;2138296;27;20026;-76
2022/12/02 02:36:53;;;;;;;23.60;12.15;;;;;;;0.07;100.00;93076.63;2138431;27;20033;-75
2022/12/02 02:37:57;;;;;;;37.35;12.93;;;;;;;0.07;100.00;93072.13;2132082;27;20057;-76
2022/12/02 02:38:58;;;;;;;33.20;11.40;;;;;;;0.13;100.00;93069.97;2119698;27;20019;-76
2022/12/02 02:39:59;;;;;;;31.35;11.52;;;;;;;0.16;100.00;93075.28;2129145;27;20428;-78
2022/12/02 02:41:00;;;;;;;31.98;11.88;;;;;;;0.10;100.00;93068.06;2138206;27;20474;-76
2022/12/02 02:42:02;;;;;;;25.98;12.10;;;;;;;0.12;100.00;93076.31;2138156;27;20460;-76
2022/12/02 02:43:03;;;;;;;69.85;12.23;;;;;;;0.15;100.00;93073.75;2137838;27;20072;-76
2022/12/02 02:44:04;;;;;;;38.90;12.57;;;;;;;0.14;100.00;93074.13;2137243;27;20030;-76
2022/12/02 02:45:06;;;;;;;45.03;12.25;;;;;;;0.02;100.00;93067.16;2128860;27;20029;-76
2022/12/02 02:46:08;;;;;;;20.45;11.13;;;;;;;0.13;100.00;93060.22;2129343;27;20031;-77
2022/12/02 02:47:09;;;;;;;34.75;12.32;;;;;;;0.06;100.00;93059.34;2120066;28;20039;-77
2022/12/02 02:48:12;;;;;;;26.63;11.32;;;;;;;0.01;100.00;93057.78;2119553;27;20067;-77
2022/12/02 02:49:13;;;;;;;19.95;11.32;;;;;;;-0.05;100.00;93065.16;2137277;27;20026;-76
2022/12/02 02:50:15;;;;;;;23.52;11.85;;;;;;;-0.05;100.00;93052.03;2128573;27;20508;-76
2022/12/02 02:51:17;;;;;;;22.10;10.70;;;;;;;-0.07;100.00;93058.75;2129018;27;20080;-77
2022/12/02 02:52:18;;;;;;;21.85;10.75;;;;;;;-0.03;100.00;93062.19;2128644;27;20023;-76
2022/12/02 02:53:22;;;;;;;21.45;10.93;;;;;;;-0.02;100.00;93059.22;2131076;27;20062;-76
2022/12/02 02:54:23;;;;;;;17.42;10.20;;;;;;;-0.04;100.00;93050.19;2137034;27;20023;-76
2022/12/02 02:55:26;;;;;;;19.83;11.13;;;;;;;-0.02;100.00;93059.22;2137515;27;20058;-75
2022/12/02 02:56:28;;;;;;;15.93;9.95;;;;;;;-0.04;100.00;93060.69;2136905;27;20018;-76
2022/12/02 02:57:29;;;;;;;18.45;10.18;;;;;;;-0.02;100.00;93059.22;2135799;27;20416;-76
2022/12/02 02:58:32;;;;;;;18.10;10.30;;;;;;;-0.08;100.00;93062.50;2131396;27;20364;-76
2022/12/02 02:59:34;;;;;;;18.23;9.50;;;;;;;-0.05;100.00;93059.91;2137775;27;20022;-76
2022/12/02 03:00:36;;;;;;;17.92;9.95;;;;;;;-0.05;100.00;93048.63;2128973;27;20042;-76
2022/12/02 03:01:37;;;;;;;17.55;9.32;;;;;;;-0.05;100.00;93052.03;2128808;27;20092;-75
2022/12/02 03:02:39;;;;;;;17.92;10.05;;;;;;;-0.02;100.00;93051.34;2128185;27;20520;-76
2022/12/02 03:03:47;;;;;;;15.07;8.90;;;;;;;0.00;100.00;93048.38;2119749;27;20027;-75
2022/12/02 03:04:49;;;;;;;16.42;9.73;;;;;;;0.03;100.00;93054.78;2129561;27;20034;-76
2022/12/02 03:05:52;;;;;;;15.57;9.15;;;;;;;-0.02;100.00;93053.97;2137755;27;20528;-75
2022/12/02 03:06:53;;;;;;;16.30;9.15;;;;;;;-0.03;100.00;93052.44;2138024;27;20029;-76
2022/12/02 03:07:55;;;;;;;17.58;9.88;;;;;;;-0.05;100.00;93053.91;2127517;27;20019;-75
2022/12/02 03:08:57;;;;;;;14.98;9.45;;;;;;;-0.06;100.00;93053.13;2125978;27;20038;-76
2022/12/02 03:09:58;;;;;;;18.00;10.38;;;;;;;-0.02;100.00;93056.59;2137428;27;20507;-76
2022/12/02 03:11:01;;;;;;;16.85;9.02;;;;;;;-0.04;100.00;93052.81;2137915;27;20134;-77
2022/12/02 03:12:03;;;;;;;15.52;9.30;;;;;;;-0.03;100.00;93055.06;2138039;27;20026;-76
2022/12/02 03:13:04;;;;;;;15.15;10.00;;;;;;;0.02;100.00;93056.66;2128573;27;20413;-76
2022/12/02 03:14:07;;;;;;;15.27;9.15;;;;;;;0.05;100.00;93058.59;2130163;27;20015;-77
2022/12/02 03:15:09;;;;;;;16.38;10.07;;;;;;;0.02;100.00;93053.28;2146003;27;20010;-76
2022/12/02 03:16:13;;;;;;;14.20;8.73;;;;;;;0.07;100.00;93050.34;2136619;27;20038;-75
2022/12/02 03:17:14;;;;;;;14.55;9.43;;;;;;;0.07;100.00;93051.09;2137743;27;20601;-75
2022/12/02 03:18:16;;;;;;;15.23;9.65;;;;;;;0.10;100.00;93049.66;2146767;27;20026;-76
2022/12/02 03:19:17;;;;;;;14.90;8.93;;;;;;;0.08;100.00;93055.25;2145397;27;20037;-76
2022/12/02 03:20:20;;;;;;;16.88;9.45;;;;;;;0.15;100.00;93041.47;2136853;27;20548;-76
2022/12/02 03:21:23;;;;;;;14.88;9.10;;;;;;;0.09;100.00;93048.91;2128964;27;20030;-76
2022/12/02 03:22:25;;;;;;;13.18;8.50;;;;;;;0.16;100.00;93042.97;2137655;27;20079;-76
2022/12/02 03:23:27;;;;;;;16.75;9.35;;;;;;;0.16;100.00;93053.50;2146482;27;20113;-76
2022/12/02 03:24:30;;;;;;;14.85;9.57;;;;;;;0.16;100.00;93049.00;2136656;27;20111;-76
2022/12/02 03:25:31;;;;;;;16.00;9.07;;;;;;;0.17;100.00;93050.50;2128868;27;20079;-76
2022/12/02 03:26:33;;;;;;;15.88;9.32;;;;;;;0.18;100.00;93044.16;2129071;27;20063;-76
2022/12/02 03:27:34;;;;;;;14.85;8.77;;;;;;;0.13;100.00;93044.47;2128443;27;20494;-76
2022/12/02 03:28:35;;;;;;;14.85;8.60;;;;;;;0.09;100.00;93043.63;2119978;27;20072;-76
2022/12/02 03:29:36;;;;;;;16.33;9.20;;;;;;;0.17;100.00;93044.50;2131825;27;20088;-75
2022/12/02 03:30:38;;;;;;;15.20;9.52;;;;;;;0.09;100.00;93046.28;2123270;27;20476;-76
2022/12/02 03:31:40;;;;;;;14.02;8.75;;;;;;;0.07;100.00;93045.84;2123478;27;20464;-76
2022/12/02 03:32:41;;;;;;;15.40;9.57;;;;;;;0.04;100.00;93041.28;2132376;27;20022;-77
2022/12/02 03:33:43;;;;;;;16.55;9.27;;;;;;;-0.03;100.00;93049.06;2122838;27;20039;-77
2022/12/02 03:34:44;;;;;;;15.82;9.40;;;;;;;-0.04;100.00;93045.69;2125236;27;20030;-77
2022/12/02 03:35:45;;;;;;;15.27;9.77;;;;;;;-0.03;100.00;93043.81;2131703;27;20022;-77
2022/12/02 03:36:46;;;;;;;15.80;9.93;;;;;;;-0.03;100.00;93041.94;2131824;27;20022;-76
2022/12/02 03:37:47;;;;;;;17.08;10.15;;;;;;;-0.05;100.00;93038.13;2132274;27;20027;-76
2022/12/02 03:38:48;;;;;;;13.90;8.77;;;;;;;0.09;100.00;93041.00;2131995;27;20022;-76
2022/12/02 03:39:50;;;;;;;15.63;9.32;;;;;;;0.02;100.00;93034.88;2131320;27;20417;-77
2022/12/02 03:40:52;;;;;;;15.82;8.85;;;;;;;-0.03;100.00;93046.44;2132789;27;20026;-77
2022/12/02 03:41:53;;;;;;;16.42;9.88;;;;;;;-0.05;100.00;93041.50;2121959;27;20019;-76
2022/12/02 03:42:54;;;;;;;16.23;9.75;;;;;;;-0.01;100.00;93039.72;2122472;27;20019;-76
2022/12/02 03:43:57;;;;;;;14.73;8.55;;;;;;;-0.07;100.00;93041.13;2131376;27;20401;-76
2022/12/02 03:44:58;;;;;;;18.58;9.48;;;;;;;-0.07;100.00;93045.63;2131674;27;20079;-76
2022/12/02 03:46:00;;;;;;;15.18;9.70;;;;;;;0.03;100.00;93041.66;2131669;27;20031;-75
2022/12/02 03:47:01;;;;;;;15.70;9.55;;;;;;;0.06;100.00;93040.94;2132402;27;20077;-76
2022/12/02 03:48:04;;;;;;;15.27;9.23;;;;;;;0.01;100.00;93041.25;2132818;27;20097;-77
2022/12/02 03:49:06;;;;;;;16.08;9.43;;;;;;;-0.03;100.00;93041.94;2122853;27;20046;-76
2022/12/02 03:50:08;;;;;;;16.60;9.93;;;;;;;-0.05;100.00;93038.88;2123114;27;20034;-76
2022/12/02 03:51:11;;;;;;;18.63;10.75;;;;;;;-0.02;100.00;93040.06;2130013;27;20023;-76
2022/12/02 03:52:12;;;;;;;15.82;9.68;;;;;;;0.03;100.00;93039.78;2122867;27;20052;-76
2022/12/02 03:53:13;;;;;;;17.67;9.55;;;;;;;-0.02;100.00;93040.81;2131092;27;20026;-76
2022/12/02 03:54:15;;;;;;;18.45;9.90;;;;;;;-0.03;100.00;93039.31;2130867;27;20044;-76
2022/12/02 03:55:16;;;;;;;18.23;10.02;;;;;;;-0.05;100.00;93036.25;2124136;27;20027;-76
2022/12/02 03:56:17;;;;;;;17.70;10.52;;;;;;;-0.05;100.00;93038.13;2131395;27;20098;-76
2022/12/02 03:57:18;;;;;;;17.45;9.85;;;;;;;-0.01;100.00;93038.94;2131292;27;20026;-76
2022/12/02 03:58:19;;;;;;;19.23;10.07;;;;;;;-0.02;100.00;93037.44;2122524;27;20027;-77
2022/12/02 03:59:24;;;;;;;18.60;10.38;;;;;;;-0.03;100.00;93035.94;2113672;28;20107;-75
2022/12/02 04:00:25;;;;;;;16.10;9.75;;;;;;;-0.05;100.00;93038.13;2114714;27;20153;-76
2022/12/02 04:01:26;;;;;;;16.42;10.02;;;;;;;-0.02;100.00;93034.81;2113863;28;20042;-75
2022/12/02 04:02:27;;;;;;;15.98;10.05;;;;;;;0.03;100.00;93029.25;2122951;27;20083;-75
2022/12/02 04:03:28;;;;;;;16.67;10.40;;;;;;;0.05;100.00;93028.94;2122264;27;20023;-76
2022/12/02 04:04:29;;;;;;;17.48;10.30;;;;;;;0.01;100.00;93025.47;2113553;28;20103;-76
2022/12/02 04:05:31;;;;;;;20.75;10.10;;;;;;;0.09;100.00;93030.50;2122625;27;20118;-76
2022/12/02 04:06:32;;;;;;;17.80;10.02;;;;;;;0.08;100.00;93031.59;2131174;27;20114;-76
2022/12/02 04:07:33;;;;;;;20.58;9.93;;;;;;;0.00;100.00;93032.59;2122645;27;20030;-76
2022/12/02 04:08:34;;;;;;;20.92;9.65;;;;;;;0.03;100.00;93031.88;2122789;27;20062;-76
2022/12/02 04:09:35;;;;;;;19.52;10.60;;;;;;;0.02;100.00;93030.38;2121732;27;20110;-76
2022/12/02 04:10:36;;;;;;;26.65;10.45;;;;;;;-0.01;100.00;93026.56;2122394;27;20113;-76
2022/12/02 04:11:37;;;;;;;18.65;10.40;;;;;;;-0.03;100.00;93028.81;2121925;27;20027;-77
2022/12/02 04:12:38;;;;;;;20.25;10.50;;;;;;;0.02;100.00;93030.38;2113912;28;20122;-76
2022/12/02 04:13:39;;;;;;;18.60;9.85;;;;;;;0.05;100.00;93028.94;2114110;28;20366;-77
2022/12/02 04:14:39;;;;;;;21.15;11.63;;;;;;;0.13;100.00;93020.81;2122575;27;20023;-77
2022/12/02 04:15:40;;;;;;;16.85;10.50;;;;;;;0.08;100.00;93022.94;2131123;27;20035;-77
2022/12/02 04:16:41;;;;;;;17.88;10.07;;;;;;;0.06;100.00;93025.94;2134541;27;20073;-77
2022/12/02 04:17:42;;;;;;;19.73;10.60;;;;;;;0.07;100.00;93019.56;2140280;27;20037;-78
2022/12/02 04:18:43;;;;;;;16.48;10.18;;;;;;;0.09;100.00;93014.75;2140256;27;20071;-77
2022/12/02 04:19:44;;;;;;;18.15;9.65;;;;;;;0.17;100.00;93020.84;2130971;27;20023;-77
2022/12/02 04:20:45;;;;;;;19.38;10.82;;;;;;;0.17;100.00;93026.84;2126773;27;20019;-78
2022/12/02 04:21:46;;;;;;;15.65;9.65;;;;;;;0.18;100.00;93014.50;2133013;27;20132;-77
2022/12/02 04:22:48;;;;;;;17.80;11.00;;;;;;;0.13;100.00;93018.19;2130617;27;20019;-77
2022/12/02 04:23:51;;;;;;;15.93;10.20;;;;;;;0.15;100.00;93017.81;2131130;27;20648;-77
2022/12/02 04:24:52;;;;;;;18.83;10.65;;;;;;;0.10;100.00;93018.13;2140373;27;20034;-77
2022/12/02 04:25:53;;;;;;;16.98;10.80;;;;;;;0.07;100.00;93016.19;2140583;27;20049;-77
2022/12/02 04:26:55;;;;;;;20.98;10.75;;;;;;;0.09;100.00;93024.47;2138732;27;20173;-77
2022/12/02 04:27:55;;;;;;;23.20;10.93;;;;;;;0.08;100.00;93023.72;2123887;27;20537;-77
2022/12/02 04:28:56;;;;;;;20.70;10.02;;;;;;;0.03;100.00;93016.13;2124078;27;20023;-77
2022/12/02 04:29:57;;;;;;;21.10;11.27;;;;;;;0.05;100.00;93016.53;2123129;27;20062;-77
2022/12/02 04:30:58;;;;;;;21.38;10.68;;;;;;;0.06;100.00;93009.41;2122991;27;20027;-77
2022/12/02 04:31:59;;;;;;;19.48;10.35;;;;;;;0.05;100.00;93006.03;2135088;27;20046;-77
2022/12/02 04:33:07;;;;;;;17.58;10.18;;;;;;;0.01;100.00;93009.72;2131208;27;20475;-77
2022/12/02 04:34:13;;;;;;;18.50;9.88;;;;;;;0.02;100.00;93004.09;2131618;27;20465;-77
2022/12/02 04:35:22;;;;;;;18.10;9.80;;;;;;;0.04;100.00;93006.38;2131750;27;20085;-77
2022/12/02 04:36:23;;;;;;;20.88;10.18;;;;;;;0.04;100.00;93009.75;2131322;27;20427;-77
2022/12/02 04:37:24;;;;;;;17.27;9.57;;;;;;;0.01;100.00;93005.22;2136559;27;20030;-77
2022/12/02 04:38:25;;;;;;;16.33;9.15;;;;;;;0.01;100.00;93005.22;2140166;27;20018;-77
2022/12/02 04:39:26;;;;;;;18.13;10.32;;;;;;;0.01;100.00;93007.09;2139417;27;20109;-77
2022/12/02 04:40:27;;;;;;;22.88;9.35;;;;;;;0.05;100.00;93005.28;2139729;27;20034;-77
2022/12/02 04:41:29;;;;;;;19.13;10.40;;;;;;;0.01;100.00;93005.22;2130638;27;20502;-77
2022/12/02 04:42:30;;;;;;;17.83;9.77;;;;;;;0.08;100.00;93004.56;2117569;27;20023;-77
2022/12/02 04:43:31;;;;;;;22.15;10.77;;;;;;;0.05;100.00;93008.66;2122362;27;20101;-78
2022/12/02 04:44:32;;;;;;;19.02;10.25;;;;;;;0.09;100.00;92998.97;2122167;27;20031;-77
2022/12/02 04:45:33;;;;;;;17.88;9.65;;;;;;;0.18;100.00;93006.63;2122508;27;20081;-78
2022/12/02 04:46:34;;;;;;;18.33;10.68;;;;;;;0.18;100.00;93003.97;2121766;27;20133;-77
2022/12/02 04:47:35;;;;;;;20.58;11.00;;;;;;;0.13;100.00;93005.03;2113238;28;20023;-77
2022/12/02 04:48:38;;;;;;;19.63;10.15;;;;;;;0.19;100.00;92997.59;2122338;27;20030;-77
2022/12/02 04:49:39;;;;;;;18.63;9.70;;;;;;;0.20;100.00;92993.88;2121990;27;20027;-77
2022/12/02 04:50:39;;;;;;;16.90;9.88;;;;;;;0.17;100.00;92994.56;2122060;27;20043;-77
2022/12/02 04:51:40;;;;;;;17.60;10.02;;;;;;;0.24;100.00;92999.94;2131495;27;20101;-76
2022/12/02 04:52:41;;;;;;;16.40;9.40;;;;;;;0.25;100.00;92996.19;2124210;27;20027;-77
2022/12/02 04:53:42;;;;;;;19.88;9.30;;;;;;;0.27;100.00;92996.59;2130160;27;20034;-77
2022/12/02 04:54:43;;;;;;;17.83;9.05;;;;;;;0.28;100.00;93000.75;2139727;27;20042;-77
2022/12/02 04:55:45;;;;;;;18.02;10.25;;;;;;;0.22;100.00;93004.78;2140069;27;20030;-77
2022/12/02 04:56:46;;;;;;;26.20;8.73;;;;;;;0.19;100.00;92997.59;2139925;27;20022;-76
2022/12/02 04:57:47;;;;;;;20.85;9.07;;;;;;;0.23;100.00;93001.06;2138134;27;20360;-76
2022/12/02 04:58:48;;;;;;;20.85;8.68;;;;;;;0.17;100.00;92997.19;2121985;27;20528;-77
2022/12/02 04:59:49;;;;;;;25.77;9.18;;;;;;;0.09;100.00;93006.06;2121660;27;20156;-77
2022/12/02 05:00:50;;;;;;;20.45;9.55;;;;;;;0.09;100.00;93000.81;2113295;28;20112;-76
2022/12/02 05:01:51;;;;;;;17.25;7.95;;;;;;;0.18;100.00;93004.75;2113170;28;20095;-76
2022/12/02 05:02:52;;;;;;;37.65;9.13;;;;;;;0.16;100.00;93004.31;2121765;27;20023;-76
2022/12/02 05:03:53;;;;;;;23.50;9.38;;;;;;;0.16;100.00;93003.56;2113652;28;20027;-76